createdAt,value
2018-10-21T00:02:24.627Z,8.93
2018-10-21T00:04:54.997Z,7.55
2018-10-21T00:07:25.708Z,13.80
2018-10-21T00:09:57.146Z,10.95
2018-10-21T00:12:28.507Z,11.63
2018-10-21T00:14:58.771Z,12.25
2018-10-21T00:17:30.723Z,14.63
2018-10-21T00:20:00.743Z,13.40
2018-10-21T00:22:31.510Z,18.37
2018-10-21T00:25:03.017Z,12.82
2018-10-21T00:27:34.523Z,9.58
2018-10-21T00:30:04.557Z,15.08
2018-10-21T00:32:39.935Z,10.70
2018-10-21T00:35:10.933Z,14.13
2018-10-21T00:37:42.493Z,11.48
2018-10-21T00:40:12.394Z,10.45
2018-10-21T00:42:43.966Z,5.53
2018-10-21T00:45:13.988Z,11.57
2018-10-21T00:47:45.726Z,7.65
2018-10-21T00:50:18.110Z,12.25
2018-10-21T00:52:48.244Z,14.73
2018-10-21T00:55:18.144Z,10.18
2018-10-21T00:57:48.079Z,11.33
2018-10-21T01:00:17.956Z,6.83
2018-10-21T01:02:49.744Z,12.58
2018-10-21T01:05:20.997Z,15.38
2018-10-21T01:07:51.390Z,12.93
2018-10-21T01:10:21.257Z,9.80
2018-10-21T01:12:52.034Z,12.58
2018-10-21T01:15:23.171Z,10.95
2018-10-21T01:17:53.084Z,12.65
2018-10-21T01:20:24.934Z,15.63
2018-10-21T01:22:55.315Z,11.28
2018-10-21T01:25:26.497Z,8.30
2018-10-21T01:27:58.050Z,12.15
2018-10-21T01:30:29.781Z,16.40
2018-10-21T01:33:01.334Z,11.00
2018-10-21T01:35:32.717Z,9.95
2018-10-21T01:38:03.594Z,11.97
2018-10-21T01:40:40.709Z,11.48
2018-10-21T01:43:13.661Z,9.55
2018-10-21T01:45:44.386Z,14.58
2018-10-21T01:48:15.577Z,12.93
2018-10-21T01:50:47.419Z,12.58
2018-10-21T01:53:18.792Z,12.03
2018-10-21T01:55:49.482Z,9.50
2018-10-21T01:58:19.583Z,13.15
2018-10-21T02:00:49.927Z,11.97
2018-10-21T02:03:20.383Z,12.18
2018-10-21T02:05:52.329Z,12.88
2018-10-21T02:08:22.333Z,13.08
2018-10-21T02:10:52.881Z,13.38
2018-10-21T02:13:22.981Z,10.43
2018-10-21T02:15:52.991Z,11.30
2018-10-21T02:18:22.998Z,11.33
2018-10-21T02:20:54.486Z,11.48
2018-10-21T02:23:24.945Z,15.03
2018-10-21T02:25:55.215Z,11.45
2018-10-21T02:28:26.149Z,9.98
2018-10-21T02:30:57.417Z,14.75
2018-10-21T02:33:27.612Z,11.88
2018-10-21T02:35:58.475Z,12.20
2018-10-21T02:38:29.034Z,13.78
2018-10-21T02:41:45.852Z,16.93
2018-10-21T02:44:19.562Z,9.13
2018-10-21T02:46:52.622Z,12.18
2018-10-21T02:49:22.849Z,41.18
2018-10-21T02:51:58.286Z,12.70
2018-10-21T02:54:29.257Z,13.95
2018-10-21T02:56:59.590Z,10.88
2018-10-21T02:59:29.570Z,11.50
2018-10-21T03:02:00.559Z,9.80
2018-10-21T03:04:30.736Z,14.45
2018-10-21T03:07:01.261Z,10.05
2018-10-21T03:09:32.335Z,11.65
2018-10-21T03:12:03.163Z,11.83
2018-10-21T03:14:33.674Z,11.60
2018-10-21T03:17:03.898Z,11.85
2018-10-21T03:19:34.214Z,13.88
2018-10-21T03:22:05.236Z,12.07
2018-10-21T03:24:37.427Z,12.13
2018-10-21T03:27:08.755Z,12.25
2018-10-21T03:29:39.100Z,11.95
2018-10-21T03:32:09.699Z,7.95
2018-10-21T03:34:42.697Z,9.73
2018-10-21T03:37:23.596Z,13.45
2018-10-21T03:39:54.972Z,8.98
2018-10-21T03:42:26.040Z,13.40
2018-10-21T03:44:56.868Z,15.90
2018-10-21T03:47:27.917Z,14.83
2018-10-21T03:49:58.315Z,13.88
2018-10-21T03:52:28.225Z,14.53
2018-10-21T03:54:59.595Z,13.00
2018-10-21T03:57:29.509Z,12.65
2018-10-21T03:59:59.688Z,14.70
2018-10-21T04:02:29.752Z,14.73
2018-10-21T04:05:00.110Z,16.60
2018-10-21T04:07:30.741Z,14.80
2018-10-21T04:10:01.919Z,12.05
2018-10-21T04:12:32.142Z,14.55
2018-10-21T04:15:02.900Z,17.02
2018-10-21T04:17:32.798Z,16.27
2018-10-21T04:20:03.305Z,14.95
2018-10-21T04:22:37.599Z,15.55
2018-10-21T04:25:09.764Z,15.55
2018-10-21T04:27:41.354Z,12.15
2018-10-21T04:30:17.010Z,13.68
2018-10-21T04:32:49.539Z,14.78
2018-10-21T04:35:19.930Z,19.35
2018-10-21T04:38:36.868Z,16.80
2018-10-21T04:41:07.969Z,17.17
2018-10-21T04:43:38.028Z,16.35
2018-10-21T04:46:08.190Z,18.50
2018-10-21T04:48:38.407Z,19.98
2018-10-21T04:51:10.893Z,23.77
2018-10-21T04:53:41.350Z,20.85
2018-10-21T04:56:11.908Z,20.65
2018-10-21T04:58:42.766Z,22.20
2018-10-21T05:01:14.097Z,24.63
2018-10-21T05:03:45.546Z,27.55
2018-10-21T05:06:16.446Z,29.30
2018-10-21T05:08:47.289Z,24.52
2018-10-21T05:11:19.496Z,28.00
2018-10-21T05:13:49.388Z,26.95
2018-10-21T05:16:19.913Z,27.73
2018-10-21T05:18:50.846Z,29.45
2018-10-21T05:21:21.612Z,28.92
2018-10-21T05:23:53.120Z,29.07
2018-10-21T05:26:23.962Z,24.60
2018-10-21T05:28:54.492Z,20.55
2018-10-21T05:31:25.228Z,34.03
2018-10-21T05:33:56.201Z,31.52
2018-10-21T05:36:26.114Z,30.60
2018-10-21T05:38:55.896Z,30.10
2018-10-21T05:41:26.593Z,29.02
2018-10-21T05:43:56.845Z,32.15
2018-10-21T05:46:45.636Z,33.42
2018-10-21T05:49:16.031Z,11.93
2018-10-21T05:51:48.578Z,32.17
2018-10-21T05:54:21.087Z,31.77
2018-10-21T05:56:51.981Z,29.42
2018-10-21T05:59:22.872Z,28.23
2018-10-21T06:01:53.989Z,29.00
2018-10-21T06:04:26.100Z,28.42
2018-10-21T06:06:56.019Z,27.00
2018-10-21T06:09:25.979Z,28.70
2018-10-21T06:11:56.893Z,28.35
2018-10-21T06:14:26.792Z,27.07
2018-10-21T06:17:17.640Z,27.80
2018-10-21T06:19:52.893Z,28.32
2018-10-21T06:22:23.115Z,25.30
2018-10-21T06:24:54.611Z,26.37
2018-10-21T06:27:25.766Z,26.37
2018-10-21T06:29:55.858Z,29.80
2018-10-21T06:32:27.264Z,28.50
2018-10-21T06:34:59.186Z,28.92
2018-10-21T06:37:30.945Z,28.42
2018-10-21T06:40:00.887Z,27.42
2018-10-21T06:42:32.173Z,27.73
2018-10-21T06:47:54.946Z,28.27
2018-10-21T06:50:25.478Z,31.57
2018-10-21T06:52:55.516Z,30.12
2018-10-21T06:55:25.670Z,16.30
2018-10-21T06:57:55.784Z,22.70
2018-10-21T07:00:26.565Z,30.10
2018-10-21T07:02:58.018Z,33.75
2018-10-21T07:06:16.813Z,31.90
2018-10-21T07:08:47.731Z,33.58
2018-10-21T07:11:23.159Z,32.65
2018-10-21T07:13:55.894Z,36.68
2018-10-21T07:16:32.171Z,31.80
2018-10-21T07:19:04.391Z,33.23
2018-10-21T07:21:39.375Z,26.05
2018-10-21T07:24:09.913Z,29.55
2018-10-21T07:26:43.628Z,28.50
2018-10-21T07:29:16.985Z,30.08
2018-10-21T07:31:52.516Z,31.85
2018-10-21T07:34:26.687Z,27.25
2018-10-21T07:36:56.780Z,27.10
2018-10-21T07:39:27.343Z,30.60
2018-10-21T07:41:58.744Z,27.00
2018-10-21T07:44:29.071Z,28.55
2018-10-21T07:47:03.000Z,26.73
2018-10-21T07:49:35.480Z,26.87
2018-10-21T07:52:14.782Z,28.62
2018-10-21T07:54:47.765Z,34.15
2018-10-21T07:57:21.126Z,31.93
2018-10-21T07:59:51.921Z,29.20
2018-10-21T08:02:22.119Z,31.10
2018-10-21T08:04:52.751Z,32.05
2018-10-21T08:07:39.785Z,34.85
2018-10-21T08:10:10.557Z,32.35
2018-10-21T08:12:43.173Z,29.50
2018-10-21T08:15:13.311Z,19.45
2018-10-21T08:17:44.141Z,37.67
2018-10-21T08:20:25.466Z,32.38
2018-10-21T08:22:56.991Z,37.73
2018-10-21T08:25:29.186Z,32.03
2018-10-21T08:28:01.145Z,38.08
2018-10-21T08:30:33.432Z,32.05
2018-10-21T08:33:04.530Z,47.23
2018-10-21T08:35:40.523Z,40.60
2018-10-21T08:38:13.658Z,41.98
2018-10-21T08:40:45.413Z,34.63
2018-10-21T08:43:41.257Z,42.27
2018-10-21T08:46:14.051Z,41.65
2018-10-21T08:52:07.960Z,19.92
2018-10-21T08:54:59.905Z,46.37
2018-10-21T08:57:57.065Z,47.35
2018-10-21T09:00:43.565Z,49.20
2018-10-21T09:03:19.800Z,47.83
2018-10-21T09:05:54.896Z,43.60
2018-10-21T09:08:41.125Z,47.65
2018-10-21T09:11:12.592Z,50.60
2018-10-21T09:13:44.204Z,48.30
2018-10-21T09:19:30.063Z,36.50
2018-10-21T09:22:01.907Z,47.48
2018-10-21T09:24:34.772Z,31.02
2018-10-21T09:27:06.418Z,47.53
2018-10-21T09:29:44.575Z,40.78
2018-10-21T09:32:18.667Z,42.55
2018-10-21T09:34:51.746Z,54.70
2018-10-21T09:37:22.755Z,56.08
2018-10-21T09:39:53.170Z,51.37
2018-10-21T09:42:23.871Z,52.55
2018-10-21T09:44:54.178Z,46.02
2018-10-21T09:50:02.079Z,57.50
2018-10-21T09:52:33.390Z,55.40
2018-10-21T09:55:05.228Z,54.38
2018-10-21T09:57:42.225Z,35.60
2018-10-21T10:00:18.232Z,56.15
2018-10-21T10:05:44.167Z,41.70
2018-10-21T10:08:15.245Z,50.12
2018-10-21T10:10:46.470Z,53.45
2018-10-21T10:13:17.342Z,52.85
2018-10-21T10:15:47.927Z,40.60
2018-10-21T10:18:19.047Z,31.30
2018-10-21T10:20:49.990Z,56.25
2018-10-21T10:23:21.119Z,81.57
2018-10-21T10:25:51.840Z,39.33
2018-10-21T10:28:22.246Z,63.38
2018-10-21T10:30:52.947Z,60.35
2018-10-21T10:33:23.432Z,58.35
2018-10-21T10:35:54.339Z,55.63
2018-10-21T10:41:07.843Z,56.33
2018-10-21T10:43:38.545Z,56.50
2018-10-21T10:46:11.570Z,58.13
2018-10-21T10:48:42.043Z,59.53
2018-10-21T10:51:12.424Z,60.30
2018-10-21T10:53:43.689Z,57.85
2018-10-21T10:58:59.756Z,65.50
2018-10-21T11:01:30.735Z,61.85
2018-10-21T11:04:01.084Z,40.33
2018-10-21T11:06:33.624Z,60.05
2018-10-21T11:09:08.344Z,45.33
2018-10-21T11:11:39.263Z,47.00
2018-10-21T11:14:09.750Z,60.67
2018-10-21T11:16:40.748Z,56.30
2018-10-21T11:21:26.980Z,49.60
2018-10-21T11:23:57.701Z,57.35
2018-10-21T11:26:28.227Z,51.80
2018-10-21T11:28:59.554Z,56.75
2018-10-21T11:31:30.156Z,58.15
2018-10-21T11:34:00.591Z,57.70
2018-10-21T11:36:30.814Z,56.95
2018-10-21T11:39:00.830Z,55.70
2018-10-21T11:41:32.843Z,54.15
2018-10-21T11:44:03.104Z,55.60
2018-10-21T11:46:34.192Z,39.35
2018-10-21T11:49:04.938Z,56.35
2018-10-21T11:51:35.595Z,42.00
2018-10-21T11:54:06.043Z,48.78
2018-10-21T11:56:38.725Z,44.13
2018-10-21T11:59:09.762Z,45.52
2018-10-21T12:01:41.526Z,37.95
2018-10-21T12:04:12.246Z,44.40
2018-10-21T12:06:43.516Z,31.12
2018-10-21T12:09:14.471Z,51.65
2018-10-21T12:11:44.501Z,49.98
2018-10-21T12:14:15.799Z,57.17
2018-10-21T12:16:46.937Z,35.70
2018-10-21T12:22:05.728Z,54.18
2018-10-21T12:24:48.037Z,51.13
2018-10-21T12:27:18.430Z,55.48
2018-10-21T12:29:48.828Z,53.02
2018-10-21T12:32:20.050Z,49.03
2018-10-21T12:34:50.267Z,56.20
2018-10-21T12:40:09.078Z,42.50
2018-10-21T12:42:40.693Z,53.35
2018-10-21T12:45:12.497Z,53.20
2018-10-21T12:47:42.669Z,55.23
2018-10-21T12:50:12.672Z,51.42
2018-10-21T12:52:44.176Z,57.10
2018-10-21T12:55:14.928Z,53.15
2018-10-21T12:57:48.274Z,54.80
2018-10-21T13:00:19.568Z,57.10
2018-10-21T13:02:49.951Z,54.77
2018-10-21T13:05:20.282Z,46.60
2018-10-21T13:07:50.144Z,44.18
2018-10-21T13:10:21.735Z,49.38
2018-10-21T13:12:51.562Z,34.50
2018-10-21T13:15:22.251Z,41.53
2018-10-21T13:17:52.450Z,53.38
2018-10-21T13:20:22.858Z,52.27
2018-10-21T13:22:54.918Z,38.35
2018-10-21T13:25:25.613Z,44.80
2018-10-21T13:27:56.098Z,46.15
2018-10-21T13:30:26.546Z,42.80
2018-10-21T13:32:56.529Z,48.08
2018-10-21T13:35:26.708Z,46.10
2018-10-21T13:37:57.779Z,45.38
2018-10-21T13:40:32.645Z,50.48
2018-10-21T13:43:02.922Z,36.38
2018-10-21T13:45:33.525Z,45.63
2018-10-21T13:48:04.902Z,49.30
2018-10-21T13:50:47.065Z,49.77
2018-10-21T13:53:18.485Z,46.65
2018-10-21T13:58:40.400Z,47.03
2018-10-21T14:01:23.315Z,44.25
2018-10-21T14:03:54.627Z,45.48
2018-10-21T14:06:35.355Z,45.95
2018-10-21T14:09:12.494Z,38.50
2018-10-21T14:11:43.976Z,25.35
2018-10-21T14:14:20.390Z,31.17
2018-10-21T14:19:45.436Z,40.17
2018-10-21T14:22:17.780Z,41.13
2018-10-21T14:24:50.663Z,38.78
2018-10-21T14:27:20.814Z,42.20
2018-10-21T14:29:53.001Z,41.65
2018-10-21T14:32:24.707Z,39.20
2018-10-21T14:34:59.287Z,24.50
2018-10-21T14:37:35.185Z,40.88
2018-10-21T14:40:15.507Z,35.08
2018-10-21T14:42:51.858Z,40.20
2018-10-21T14:45:26.368Z,40.85
2018-10-21T14:47:58.813Z,40.63
2018-10-21T14:50:33.484Z,43.48
2018-10-21T14:53:05.391Z,36.13
2018-10-21T14:55:36.861Z,43.92
2018-10-21T14:58:08.766Z,38.58
2018-10-21T15:00:38.721Z,40.35
2018-10-21T15:03:08.828Z,36.55
2018-10-21T15:05:39.668Z,43.78
2018-10-21T15:08:13.036Z,43.17
2018-10-21T15:10:47.287Z,41.90
2018-10-21T15:13:17.497Z,37.10
2018-10-21T15:15:50.222Z,42.10
2018-10-21T15:18:21.599Z,37.55
2018-10-21T15:20:52.627Z,43.23
2018-10-21T15:23:24.659Z,45.38
2018-10-21T15:25:54.883Z,41.33
2018-10-21T15:28:27.461Z,40.58
2018-10-21T15:30:57.634Z,47.13
2018-10-21T15:33:29.975Z,39.65
2018-10-21T15:36:00.087Z,45.73
2018-10-21T15:38:31.103Z,44.38
2018-10-21T15:41:10.144Z,35.10
2018-10-21T15:43:43.640Z,48.13
2018-10-21T15:46:13.862Z,45.40
2018-10-21T15:48:45.445Z,41.05
2018-10-21T15:51:21.370Z,45.60
2018-10-21T15:53:55.869Z,48.55
2018-10-21T15:56:26.294Z,40.55
2018-10-21T15:58:58.876Z,42.35
2018-10-21T16:01:33.511Z,46.83
2018-10-21T16:04:03.983Z,45.23
2018-10-21T16:06:35.206Z,45.15
2018-10-21T16:09:08.974Z,47.33
2018-10-21T16:11:39.536Z,48.20
2018-10-21T16:17:08.935Z,48.90
2018-10-21T16:19:44.482Z,39.35
2018-10-21T16:22:17.036Z,46.28
2018-10-21T16:24:55.469Z,44.08
2018-10-21T16:27:26.232Z,38.00
2018-10-21T16:29:58.756Z,46.55
2018-10-21T16:32:29.822Z,47.60
2018-10-21T16:34:59.965Z,45.55
2018-10-21T16:37:31.711Z,29.40
2018-10-21T16:40:04.413Z,44.73
2018-10-21T16:42:35.150Z,40.50
2018-10-21T16:45:05.812Z,42.85
2018-10-21T16:47:38.635Z,43.73
2018-10-21T16:50:14.720Z,29.92
2018-10-21T16:52:46.458Z,30.82
2018-10-21T16:55:18.342Z,43.75
2018-10-21T16:57:52.458Z,40.70
2018-10-21T17:00:22.697Z,35.98
2018-10-21T17:02:52.563Z,41.53
2018-10-21T17:05:22.858Z,40.55
2018-10-21T17:07:52.789Z,43.75
2018-10-21T17:10:24.033Z,41.75
2018-10-21T17:12:54.121Z,40.40
2018-10-21T17:15:24.061Z,40.80
2018-10-21T17:17:54.080Z,38.88
2018-10-21T17:20:24.485Z,35.30
2018-10-21T17:22:55.599Z,28.45
2018-10-21T17:25:26.745Z,37.30
2018-10-21T17:27:57.672Z,39.95
2018-10-21T17:30:30.112Z,31.17
2018-10-21T17:33:02.308Z,33.60
2018-10-21T17:35:33.190Z,32.63
2018-10-21T17:38:09.009Z,27.62
2018-10-21T17:40:43.301Z,33.80
2018-10-21T17:43:14.715Z,26.33
2018-10-21T17:45:47.183Z,33.28
2018-10-21T17:48:20.413Z,28.67
2018-10-21T17:50:51.117Z,33.88
2018-10-21T17:53:22.169Z,32.63
2018-10-21T17:55:54.260Z,26.75
2018-10-21T17:58:24.678Z,32.28
2018-10-21T18:00:55.321Z,37.55
2018-10-21T18:03:27.533Z,17.12
2018-10-21T18:05:58.991Z,38.23
2018-10-21T18:08:29.762Z,35.55
2018-10-21T18:11:01.322Z,33.15
2018-10-21T18:13:31.939Z,34.23
2018-10-21T18:16:02.194Z,33.88
2018-10-21T18:18:32.718Z,29.65
2018-10-21T18:21:03.057Z,33.67
2018-10-21T18:23:39.312Z,32.98
2018-10-21T18:26:11.709Z,38.55
2018-10-21T18:28:44.244Z,36.60
2018-10-21T18:31:15.181Z,33.45
2018-10-21T18:33:48.298Z,34.03
2018-10-21T18:36:19.999Z,29.07
2018-10-21T18:38:51.825Z,28.35
2018-10-21T18:41:23.179Z,32.88
2018-10-21T18:43:55.094Z,22.17
2018-10-21T18:46:33.960Z,26.85
2018-10-21T18:49:07.972Z,38.23
2018-10-21T18:51:38.857Z,36.23
2018-10-21T18:54:10.025Z,26.10
2018-10-21T18:56:41.694Z,36.05
2018-10-21T18:59:13.504Z,36.05
2018-10-21T19:01:44.928Z,29.98
2018-10-21T19:04:15.378Z,37.53
2018-10-21T19:06:46.224Z,36.77
2018-10-21T19:09:16.753Z,32.42
2018-10-21T19:11:47.538Z,35.88
2018-10-21T19:14:19.915Z,21.40
2018-10-21T19:16:52.085Z,36.98
2018-10-21T19:19:22.850Z,33.83
2018-10-21T19:21:53.137Z,33.35
2018-10-21T19:24:24.042Z,29.50
2018-10-21T19:26:55.315Z,25.23
2018-10-21T19:29:26.913Z,23.50
2018-10-21T19:31:59.529Z,33.70
2018-10-21T19:34:34.302Z,32.60
2018-10-21T19:39:55.037Z,33.67
2018-10-21T19:42:25.725Z,32.73
2018-10-21T19:44:56.642Z,22.80
2018-10-21T19:47:34.887Z,23.67
2018-10-21T19:50:07.770Z,32.48
2018-10-21T19:52:38.972Z,27.93
2018-10-21T19:55:10.812Z,22.07
2018-10-21T19:57:42.728Z,26.68
2018-10-21T20:03:04.258Z,19.50
2018-10-21T20:05:35.528Z,27.15
2018-10-21T20:08:10.519Z,33.13
2018-10-21T20:10:41.234Z,32.10
2018-10-21T20:13:13.934Z,28.40
2018-10-21T20:15:47.871Z,18.67
2018-10-21T20:18:21.774Z,30.60
2018-10-21T20:20:54.073Z,28.07
2018-10-21T20:23:25.011Z,21.50
2018-10-21T20:25:58.801Z,29.05
2018-10-21T20:28:31.287Z,31.17
2018-10-21T20:31:01.642Z,26.80
2018-10-21T20:33:31.757Z,29.25
2018-10-21T20:36:02.584Z,33.70
2018-10-21T20:38:35.388Z,29.87
2018-10-21T20:41:08.795Z,21.48
2018-10-21T20:43:40.951Z,31.82
2018-10-21T20:46:12.751Z,27.70
2018-10-21T20:48:45.316Z,26.90
2018-10-21T20:51:16.123Z,18.67
2018-10-21T20:53:48.407Z,27.48
2018-10-21T20:56:19.352Z,25.65
2018-10-21T20:58:50.069Z,29.00
2018-10-21T21:01:20.338Z,25.97
2018-10-21T21:03:51.114Z,28.50
2018-10-21T21:06:21.482Z,33.53
2018-10-21T21:08:51.706Z,30.57
2018-10-21T21:11:23.710Z,31.65
2018-10-21T21:13:59.951Z,30.05
2018-10-21T21:16:32.061Z,31.15
2018-10-21T21:19:02.456Z,18.70
2018-10-21T21:21:33.076Z,30.10
2018-10-21T21:24:04.639Z,29.65
2018-10-21T21:26:38.514Z,24.67
2018-10-21T21:29:09.444Z,38.78
2018-10-21T21:31:40.181Z,33.40
2018-10-21T21:34:11.709Z,36.05
2018-10-21T21:36:42.897Z,30.37
2018-10-21T21:39:15.721Z,25.97
2018-10-21T21:41:48.488Z,23.30
2018-10-21T21:44:19.142Z,33.67
2018-10-21T21:46:49.541Z,36.68
2018-10-21T21:49:19.458Z,28.17
2018-10-21T21:51:49.963Z,29.92
2018-10-21T21:54:21.892Z,34.75
2018-10-21T21:56:51.833Z,35.52
2018-10-21T21:59:22.962Z,31.17
2018-10-21T22:01:52.946Z,28.98
2018-10-21T22:04:22.971Z,27.75
2018-10-21T22:06:53.628Z,26.35
2018-10-21T22:09:24.050Z,26.37
2018-10-21T22:11:55.111Z,20.50
2018-10-21T22:14:25.737Z,29.32
2018-10-21T22:16:56.269Z,33.45
2018-10-21T22:19:27.657Z,32.75
2018-10-21T22:21:57.521Z,25.43
2018-10-21T22:24:28.746Z,32.05
2018-10-21T22:26:59.122Z,33.35
2018-10-21T22:29:29.090Z,29.60
2018-10-21T22:31:59.002Z,32.60
2018-10-21T22:34:28.979Z,34.85
2018-10-21T22:36:58.902Z,21.65
2018-10-21T22:39:28.959Z,32.90
2018-10-21T22:41:58.954Z,19.77
2018-10-21T22:44:30.091Z,22.73
2018-10-21T22:49:31.528Z,27.65
2018-10-21T22:52:01.857Z,22.40
2018-10-21T22:54:31.949Z,32.50
2018-10-21T22:57:02.503Z,32.93
2018-10-21T22:59:33.139Z,32.38
2018-10-21T23:02:03.466Z,30.15
2018-10-21T23:04:33.623Z,36.30
2018-10-21T23:07:05.113Z,29.98
2018-10-21T23:09:35.035Z,36.38
2018-10-21T23:12:08.441Z,31.57
2018-10-21T23:14:39.358Z,23.62
2018-10-21T23:17:09.464Z,34.98
2018-10-21T23:19:45.257Z,32.20
2018-10-21T23:22:15.368Z,28.47
2018-10-21T23:24:46.165Z,26.12
2018-10-21T23:27:18.364Z,27.60
2018-10-21T23:29:48.667Z,34.13
2018-10-21T23:32:18.959Z,30.92
2018-10-21T23:34:48.802Z,38.05
2018-10-21T23:37:18.889Z,40.28
2018-10-21T23:39:49.662Z,29.40
2018-10-21T23:42:21.331Z,42.25
2018-10-21T23:44:54.728Z,35.10
2018-10-21T23:47:26.708Z,41.55
2018-10-21T23:49:57.012Z,39.30
2018-10-21T23:52:27.957Z,41.70
2018-10-21T23:55:00.897Z,46.70
2018-10-21T23:57:36.751Z,38.90
